KMTC/MTC METAR and TAF weather

Enter ICAO airport designator
Station Type Date Time Source
KMTC METAR 2019/10/23 01:56 UTC NOAA

KMTC 230156Z 21008KT 12SM BKN060 10/05 A2975 RMK AO2A SLP079 SLP ESTMD T00990049


Station Type Date Time Source
KMTC Decoded METAR 2019/10/23 01:56 UTC NOAA

Selfridge Air National Guard Base, MI, United States (KMTC) 42-37N 082-50W
Oct 22, 2019 - 09:56 PM EDT / 2019.10.23 0156 UTC
Wind: from the SSW (210 degrees) at 9 MPH (8 KT):0
Visibility: 12 mile(s):0
Sky conditions: mostly cloudy
Temperature: 49.8 F (9.9 C)
Dew Point: 40.8 F (4.9 C)
Relative Humidity: 71%
Pressure (altimeter): 29.75 in. Hg (1007 hPa)
ob: KMTC 230156Z 21008KT 12SM BKN060 10/05 A2975 RMK AO2A SLP079 SLP ESTMD T00990049
cycle: 2

Station Type Date Time Source
KMTC TAF 2019/10/23 02:21 UTC NOAA

TAF
AMD KMTC 230215Z 2302/2407 23012KT 9999 BKN030 620503 QNH2972INS
BECMG 2312/2313 24015G25KT 9999 BKN030 620502 QNH2984INS
BECMG 2321/2322 24012KT 9999 FEW050 QNH2994INS
BECMG 2401/2402 22009KT 9999 BKN030 620607 QNH2999INS TX13/2321Z TN06/2308Z LAST NO
AMDS AFT 2303 NEXT 2309

Example: see airport list